Time;durP1;ratioP1;P1;durP2;ratioP2;P2;SDS_P1;SDS_P2;PMS_P1;PMS_P2;Temp;Humidity;BMP_temperature;BMP_pressure;BME280_temperature;BME280_humidity;BME280_pressure;Samples;Min_cycle;Max_cycle;Signal;HPM_P1;HPM_P2
2021/07/20 00:02:26;;;;;;;25.30;17.40;;;;;;;;;;5066012;28;20036;-67
2021/07/20 00:04:52;;;;;;;25.15;16.42;;;;;;;;;;5057434;28;20048;-67
2021/07/20 00:07:18;;;;;;;28.23;17.13;;;;;;;;;;5061314;28;20036;-67
2021/07/20 00:09:44;;;;;;;22.52;17.10;;;;;;;;;;5050371;28;20466;-67
2021/07/20 00:12:10;;;;;;;24.90;16.63;;;;;;;;;;5059274;28;20045;-67
2021/07/20 00:14:36;;;;;;;26.67;17.15;;;;;;;;;;5058874;28;20036;-67
2021/07/20 00:17:03;;;;;;;27.95;16.92;;;;;;;;;;5056256;28;20527;-67
2021/07/20 00:19:29;;;;;;;29.60;16.67;;;;;;;;;;5059819;28;20155;-67
2021/07/20 00:21:56;;;;;;;26.73;16.92;;;;;;;;;;5053827;28;20129;-67
2021/07/20 00:24:22;;;;;;;27.40;17.00;;;;;;;;;;5059905;28;20546;-67
2021/07/20 00:26:48;;;;;;;23.95;16.20;;;;;;;;;;5051894;28;20072;-67
2021/07/20 00:29:15;;;;;;;25.52;16.50;;;;;;;;;;5066644;28;20497;-67
2021/07/20 00:31:41;;;;;;;27.25;17.15;;;;;;;;;;5054996;28;20059;-67
2021/07/20 00:34:07;;;;;;;22.75;16.13;;;;;;;;;;5055931;28;20087;-67
2021/07/20 00:36:33;;;;;;;24.83;16.52;;;;;;;;;;5057373;28;20052;-67
2021/07/20 00:39:00;;;;;;;25.10;16.67;;;;;;;;;;5062013;28;20757;-67
2021/07/20 00:41:26;;;;;;;24.80;16.25;;;;;;;;;;5056109;28;20037;-67
2021/07/20 00:43:52;;;;;;;26.55;15.90;;;;;;;;;;5057255;28;20040;-67
2021/07/20 00:46:18;;;;;;;24.63;15.90;;;;;;;;;;5054210;28;20418;-67
2021/07/20 00:48:44;;;;;;;23.67;16.15;;;;;;;;;;5057862;28;20076;-67
2021/07/20 00:51:10;;;;;;;23.00;16.40;;;;;;;;;;5060579;28;20401;-67
2021/07/20 00:53:37;;;;;;;24.75;15.68;;;;;;;;;;5053965;28;20346;-67
2021/07/20 00:56:03;;;;;;;24.98;15.35;;;;;;;;;;5062190;28;20095;-67
2021/07/20 00:58:31;;;;;;;22.63;15.52;;;;;;;;;;5057452;28;20063;-67
2021/07/20 01:00:57;;;;;;;26.13;15.68;;;;;;;;;;5044016;28;20448;-67
2021/07/20 01:03:23;;;;;;;24.83;16.20;;;;;;;;;;5058819;28;20115;-67
2021/07/20 01:05:50;;;;;;;21.42;15.40;;;;;;;;;;5061455;28;20067;-67
2021/07/20 01:08:17;;;;;;;25.75;16.30;;;;;;;;;;5051735;28;20468;-67
2021/07/20 01:10:43;;;;;;;23.75;15.88;;;;;;;;;;5060826;28;20043;-67
2021/07/20 01:13:11;;;;;;;22.88;14.75;;;;;;;;;;5054195;28;20408;-67
2021/07/20 01:15:37;;;;;;;24.08;14.88;;;;;;;;;;5058834;28;20044;-67
2021/07/20 01:18:05;;;;;;;24.70;15.02;;;;;;;;;;5051259;28;20043;-67
2021/07/20 01:20:32;;;;;;;22.02;14.95;;;;;;;;;;5060226;28;20037;-67
2021/07/20 01:23:11;;;;;;;20.90;14.48;;;;;;;;;;5055839;28;20063;-67
2021/07/20 01:25:38;;;;;;;22.73;15.40;;;;;;;;;;5057816;28;20502;-67
2021/07/20 01:28:06;;;;;;;21.25;15.25;;;;;;;;;;5054878;28;20500;-67
2021/07/20 01:30:34;;;;;;;27.00;15.05;;;;;;;;;;5059451;28;20051;-67
2021/07/20 01:33:04;;;;;;;19.98;14.35;;;;;;;;;;5053023;28;20041;-67
2021/07/20 01:35:30;;;;;;;22.00;14.48;;;;;;;;;;5059818;28;20420;-67
2021/07/20 01:37:57;;;;;;;21.58;15.25;;;;;;;;;;5058548;28;20515;-67
2021/07/20 01:40:24;;;;;;;20.27;13.45;;;;;;;;;;5056326;28;20078;-67
2021/07/20 01:42:51;;;;;;;20.48;14.27;;;;;;;;;;5058344;28;20111;-67
2021/07/20 01:45:17;;;;;;;22.83;15.15;;;;;;;;;;5053508;28;20430;-67
2021/07/20 01:47:45;;;;;;;22.33;14.60;;;;;;;;;;5062753;28;20040;-67
2021/07/20 01:50:12;;;;;;;20.67;14.23;;;;;;;;;;5050948;28;20120;-67
2021/07/20 01:52:39;;;;;;;22.83;14.77;;;;;;;;;;5061386;28;20383;-67
2021/07/20 01:55:05;;;;;;;19.65;13.68;;;;;;;;;;5054988;28;20032;-67
2021/07/20 01:57:31;;;;;;;18.60;13.52;;;;;;;;;;5061254;28;20048;-67
2021/07/20 01:59:57;;;;;;;22.30;13.20;;;;;;;;;;5052916;28;20550;-67
2021/07/20 02:10:12;;;;;;;18.55;13.50;;;;;;;;;;5051069;28;20040;-67
2021/07/20 02:12:41;;;;;;;19.63;13.13;;;;;;;;;;5061483;28;20466;-67
2021/07/20 02:15:08;;;;;;;22.63;14.15;;;;;;;;;;5049049;28;20159;-67
2021/07/20 02:17:35;;;;;;;20.48;13.13;;;;;;;;;;5061707;28;20459;-68
2021/07/20 02:20:11;;;;;;;18.02;12.30;;;;;;;;;;5048967;28;20049;-67
2021/07/20 02:22:38;;;;;;;20.27;13.30;;;;;;;;;;5061075;28;20046;-67
2021/07/20 02:25:05;;;;;;;18.73;12.95;;;;;;;;;;5050808;28;20033;-67
2021/07/20 02:27:31;;;;;;;19.55;12.43;;;;;;;;;;5063393;28;20047;-67
2021/07/20 02:30:08;;;;;;;16.92;12.55;;;;;;;;;;5055798;28;20045;-67
2021/07/20 02:32:35;;;;;;;19.70;13.90;;;;;;;;;;5060923;28;20049;-67
2021/07/20 02:35:02;;;;;;;20.42;14.20;;;;;;;;;;5058293;28;20047;-67
2021/07/20 02:37:29;;;;;;;20.40;14.13;;;;;;;;;;5053803;28;20040;-67
2021/07/20 02:39:56;;;;;;;20.15;13.05;;;;;;;;;;5056892;28;20040;-67
2021/07/20 02:42:23;;;;;;;19.73;12.65;;;;;;;;;;5049295;28;20033;-67
2021/07/20 02:44:50;;;;;;;23.08;13.45;;;;;;;;;;5057894;28;20099;-67
2021/07/20 02:47:17;;;;;;;19.75;13.90;;;;;;;;;;5052831;28;20036;-67
2021/07/20 02:49:44;;;;;;;21.10;12.98;;;;;;;;;;5058419;28;20056;-67
2021/07/20 02:52:10;;;;;;;18.65;13.27;;;;;;;;;;5050977;28;20072;-67
2021/07/20 02:54:37;;;;;;;21.38;13.65;;;;;;;;;;5061258;28;20033;-67
2021/07/20 02:57:05;;;;;;;17.80;13.15;;;;;;;;;;5055147;28;20089;-67
2021/07/20 02:59:32;;;;;;;17.80;12.65;;;;;;;;;;5058677;28;20041;-67
2021/07/20 03:02:00;;;;;;;18.85;12.55;;;;;;;;;;5051754;28;20098;-67
2021/07/20 03:04:26;;;;;;;15.48;11.55;;;;;;;;;;5061295;28;20044;-67
2021/07/20 03:06:54;;;;;;;18.77;12.55;;;;;;;;;;5030721;28;20045;-67
2021/07/20 03:09:24;;;;;;;18.05;12.60;;;;;;;;;;5061845;28;20045;-67
2021/07/20 03:11:54;;;;;;;19.15;12.82;;;;;;;;;;5052981;28;20044;-67
2021/07/20 03:14:21;;;;;;;18.27;11.68;;;;;;;;;;5057063;28;20041;-67
2021/07/20 03:16:48;;;;;;;19.63;11.65;;;;;;;;;;5058667;28;20094;-67
2021/07/20 03:19:15;;;;;;;16.45;10.98;;;;;;;;;;5060437;28;20105;-67
2021/07/20 03:21:42;;;;;;;17.30;11.50;;;;;;;;;;5056329;28;20060;-67
2021/07/20 03:24:09;;;;;;;17.88;11.90;;;;;;;;;;5054386;28;20374;-67
2021/07/20 03:26:35;;;;;;;17.92;12.40;;;;;;;;;;5054655;28;20040;-67
2021/07/20 03:29:04;;;;;;;18.13;12.35;;;;;;;;;;5054182;28;20056;-67
2021/07/20 03:31:31;;;;;;;14.50;11.38;;;;;;;;;;5057066;28;20408;-67
2021/07/20 03:33:58;;;;;;;16.40;11.63;;;;;;;;;;5052083;28;20424;-67
2021/07/20 03:36:26;;;;;;;17.10;11.63;;;;;;;;;;5057980;28;20032;-67
2021/07/20 03:38:52;;;;;;;16.83;11.40;;;;;;;;;;5054284;28;20497;-67
2021/07/20 03:41:19;;;;;;;15.27;10.85;;;;;;;;;;5057766;28;20088;-67
2021/07/20 03:43:45;;;;;;;13.75;10.85;;;;;;;;;;5048469;28;20079;-67
2021/07/20 03:46:12;;;;;;;16.05;10.88;;;;;;;;;;5057233;28;20501;-67
2021/07/20 03:48:38;;;;;;;15.27;11.13;;;;;;;;;;5050336;28;20032;-67
2021/07/20 03:51:04;;;;;;;17.30;11.93;;;;;;;;;;5058307;28;20199;-67
2021/07/20 03:53:32;;;;;;;14.75;10.95;;;;;;;;;;5049708;28;20033;-67
2021/07/20 03:55:59;;;;;;;18.42;12.57;;;;;;;;;;5063402;28;20090;-67
2021/07/20 03:58:25;;;;;;;15.95;11.60;;;;;;;;;;5055820;28;20408;-67
2021/07/20 04:00:53;;;;;;;17.20;11.77;;;;;;;;;;5058859;28;20076;-67
2021/07/20 04:03:23;;;;;;;15.35;10.80;;;;;;;;;;5062888;28;20040;-67
2021/07/20 04:05:51;;;;;;;17.60;11.38;;;;;;;;;;5058947;28;20036;-67
2021/07/20 04:08:18;;;;;;;16.08;11.15;;;;;;;;;;5061362;28;20064;-67
2021/07/20 04:10:45;;;;;;;15.57;10.98;;;;;;;;;;5054647;28;20485;-67
2021/07/20 04:13:11;;;;;;;17.25;12.13;;;;;;;;;;5063489;28;20064;-67
2021/07/20 04:15:44;;;;;;;15.98;11.77;;;;;;;;;;5054765;28;20036;-67
2021/07/20 04:18:11;;;;;;;17.80;11.82;;;;;;;;;;5060169;28;20064;-67
2021/07/20 04:20:37;;;;;;;14.38;10.38;;;;;;;;;;5056943;28;20060;-67
2021/07/20 04:23:04;;;;;;;18.33;12.10;;;;;;;;;;5059271;28;20044;-67
2021/07/20 04:25:31;;;;;;;16.17;11.65;;;;;;;;;;5052381;28;20040;-67
2021/07/20 04:27:57;;;;;;;16.48;11.30;;;;;;;;;;5063316;28;20111;-67
2021/07/20 04:30:23;;;;;;;16.98;12.10;;;;;;;;;;5057626;28;20029;-68
2021/07/20 04:32:50;;;;;;;15.95;11.65;;;;;;;;;;5056550;28;20572;-68
2021/07/20 04:35:17;;;;;;;16.08;11.25;;;;;;;;;;5053794;28;20040;-68
2021/07/20 04:37:44;;;;;;;16.75;11.45;;;;;;;;;;5056418;28;20051;-68
2021/07/20 04:40:11;;;;;;;15.75;10.85;;;;;;;;;;5054712;28;20121;-68
2021/07/20 04:42:38;;;;;;;15.52;10.90;;;;;;;;;;5062866;28;20128;-68
2021/07/20 04:45:07;;;;;;;13.73;10.70;;;;;;;;;;5067846;28;20099;-68
2021/07/20 04:47:33;;;;;;;14.98;11.05;;;;;;;;;;5053546;28;20074;-68
2021/07/20 04:50:00;;;;;;;14.45;10.40;;;;;;;;;;5059401;28;20052;-68
2021/07/20 04:52:26;;;;;;;15.90;10.75;;;;;;;;;;5051166;28;20067;-68
2021/07/20 04:54:53;;;;;;;14.50;11.60;;;;;;;;;;5065533;28;20116;-68
2021/07/20 04:57:19;;;;;;;14.98;10.95;;;;;;;;;;5054418;28;20040;-68
2021/07/20 04:59:45;;;;;;;14.60;11.15;;;;;;;;;;5061655;28;20036;-68
2021/07/20 05:02:14;;;;;;;16.27;11.35;;;;;;;;;;5058281;28;20128;-68
2021/07/20 05:04:41;;;;;;;17.25;11.70;;;;;;;;;;5060884;28;20090;-68
2021/07/20 05:07:10;;;;;;;17.67;11.85;;;;;;;;;;5059099;28;20472;-68
2021/07/20 05:09:36;;;;;;;15.18;11.57;;;;;;;;;;5064869;28;20044;-68
2021/07/20 05:12:03;;;;;;;14.25;11.27;;;;;;;;;;5061499;28;20040;-68
2021/07/20 05:14:29;;;;;;;15.20;11.10;;;;;;;;;;5064712;28;20051;-68
2021/07/20 05:16:55;;;;;;;15.65;11.30;;;;;;;;;;5056045;28;20044;-68
2021/07/20 05:19:21;;;;;;;18.50;11.48;;;;;;;;;;5069438;28;20040;-68
2021/07/20 05:21:48;;;;;;;15.00;11.60;;;;;;;;;;5056065;28;20441;-68
2021/07/20 05:24:15;;;;;;;15.00;11.38;;;;;;;;;;5056592;28;20071;-68
2021/07/20 05:26:45;;;;;;;13.90;11.10;;;;;;;;;;5063045;28;20130;-68
2021/07/20 05:29:14;;;;;;;17.25;11.48;;;;;;;;;;5041787;28;20059;-68
2021/07/20 05:31:40;;;;;;;14.30;11.20;;;;;;;;;;5058440;28;20033;-68
2021/07/20 05:34:06;;;;;;;16.75;11.35;;;;;;;;;;5053921;28;20044;-68
2021/07/20 05:36:35;;;;;;;17.58;12.30;;;;;;;;;;5064331;28;20053;-68
2021/07/20 05:39:01;;;;;;;16.42;11.15;;;;;;;;;;5040757;28;20053;-68
2021/07/20 05:41:28;;;;;;;20.33;11.98;;;;;;;;;;5062684;28;20115;-68
2021/07/20 05:43:56;;;;;;;15.85;12.18;;;;;;;;;;5055767;28;20043;-68
2021/07/20 05:46:22;;;;;;;19.55;12.32;;;;;;;;;;5063724;28;20507;-68
2021/07/20 05:48:49;;;;;;;14.10;11.23;;;;;;;;;;5057601;28;20127;-68
2021/07/20 05:51:16;;;;;;;14.38;10.70;;;;;;;;;;5064343;28;20047;-68
2021/07/20 05:53:42;;;;;;;15.30;11.38;;;;;;;;;;5056128;28;20037;-68
2021/07/20 05:56:09;;;;;;;14.82;10.85;;;;;;;;;;5059248;28;20071;-68
2021/07/20 05:58:36;;;;;;;15.15;11.40;;;;;;;;;;5052865;28;20049;-68
2021/07/20 06:01:03;;;;;;;17.33;11.80;;;;;;;;;;5065970;28;20119;-68
2021/07/20 06:03:32;;;;;;;18.58;11.30;;;;;;;;;;5054101;28;20045;-68
2021/07/20 06:05:58;;;;;;;16.30;11.90;;;;;;;;;;5065897;28;20094;-68
2021/07/20 06:08:26;;;;;;;16.10;10.65;;;;;;;;;;5041344;28;20048;-68
2021/07/20 06:10:54;;;;;;;17.55;11.35;;;;;;;;;;5057874;28;20041;-68
2021/07/20 06:13:21;;;;;;;17.42;12.20;;;;;;;;;;5062863;28;20441;-69
2021/07/20 06:15:48;;;;;;;17.17;10.77;;;;;;;;;;5057367;28;20048;-68
2021/07/20 06:18:15;;;;;;;13.77;11.38;;;;;;;;;;5060320;28;20045;-68
2021/07/20 06:20:53;;;;;;;14.05;10.95;;;;;;;;;;5058242;28;20432;-68
2021/07/20 06:23:21;;;;;;;13.25;10.75;;;;;;;;;;5060955;28;20108;-68
2021/07/20 06:25:48;;;;;;;14.73;10.35;;;;;;;;;;5058161;28;20098;-68
2021/07/20 06:28:15;;;;;;;13.50;9.65;;;;;;;;;;5048702;28;20132;-68
2021/07/20 06:30:42;;;;;;;15.02;10.20;;;;;;;;;;5051604;28;20399;-69
2021/07/20 06:33:08;;;;;;;15.40;9.98;;;;;;;;;;5062259;28;20098;-69
2021/07/20 06:35:34;;;;;;;13.77;10.52;;;;;;;;;;5040388;28;20091;-68
2021/07/20 06:38:02;;;;;;;13.25;10.38;;;;;;;;;;5046826;28;20060;-68
2021/07/20 06:40:29;;;;;;;15.05;11.68;;;;;;;;;;5054094;28;20090;-68
2021/07/20 06:42:56;;;;;;;14.02;10.85;;;;;;;;;;5063984;28;20044;-68
2021/07/20 06:45:22;;;;;;;14.27;10.07;;;;;;;;;;5052158;28;20039;-68
2021/07/20 06:47:49;;;;;;;13.02;9.95;;;;;;;;;;5061816;28;20300;-68
2021/07/20 06:50:17;;;;;;;13.75;10.30;;;;;;;;;;5039980;28;20068;-69
2021/07/20 06:52:44;;;;;;;14.00;10.70;;;;;;;;;;5064653;28;20057;-68
2021/07/20 06:55:11;;;;;;;14.25;10.25;;;;;;;;;;5060021;28;20036;-69
2021/07/20 06:57:37;;;;;;;16.10;10.93;;;;;;;;;;5052249;28;20048;-69
2021/07/20 07:00:05;;;;;;;11.43;9.20;;;;;;;;;;5044961;28;20057;-69
2021/07/20 07:02:31;;;;;;;13.35;9.77;;;;;;;;;;5038141;28;20049;-69
2021/07/20 07:04:59;;;;;;;14.02;9.00;;;;;;;;;;5058622;28;20090;-69
2021/07/20 07:07:28;;;;;;;14.23;9.30;;;;;;;;;;5051061;28;20547;-69
2021/07/20 07:09:54;;;;;;;12.63;9.73;;;;;;;;;;5063884;28;20119;-69
2021/07/20 07:12:21;;;;;;;12.38;8.82;;;;;;;;;;5054578;28;20495;-69
2021/07/20 07:14:47;;;;;;;11.20;8.98;;;;;;;;;;5054284;28;20093;-69
2021/07/20 07:17:13;;;;;;;13.38;9.10;;;;;;;;;;5051831;28;20103;-69
2021/07/20 07:19:40;;;;;;;12.13;9.35;;;;;;;;;;5058343;28;20103;-69
2021/07/20 07:22:06;;;;;;;9.23;8.20;;;;;;;;;;5055785;28;20053;-69
2021/07/20 07:24:34;;;;;;;10.43;8.20;;;;;;;;;;5056789;28;20049;-69
2021/07/20 07:27:01;;;;;;;10.95;8.25;;;;;;;;;;5051441;28;20033;-70
2021/07/20 07:29:28;;;;;;;10.90;7.88;;;;;;;;;;5058056;28;20491;-69
2021/07/20 07:31:54;;;;;;;11.85;8.30;;;;;;;;;;5049454;28;20401;-69
2021/07/20 07:34:21;;;;;;;10.18;8.13;;;;;;;;;;5065683;28;20473;-69
2021/07/20 07:36:48;;;;;;;10.15;8.30;;;;;;;;;;5060329;28;20083;-69
2021/07/20 07:39:16;;;;;;;10.15;7.47;;;;;;;;;;5058344;28;20037;-69
2021/07/20 07:41:42;;;;;;;10.23;7.47;;;;;;;;;;5066761;28;20075;-69
2021/07/20 07:44:12;;;;;;;9.35;6.95;;;;;;;;;;5062016;28;20071;-69
2021/07/20 07:46:40;;;;;;;11.57;8.57;;;;;;;;;;5060660;28;20043;-68
2021/07/20 07:49:08;;;;;;;9.63;7.78;;;;;;;;;;5054135;28;20443;-68
2021/07/20 07:51:34;;;;;;;11.82;8.45;;;;;;;;;;5059024;28;20115;-68
2021/07/20 07:54:00;;;;;;;11.10;8.93;;;;;;;;;;5052657;28;20497;-68
2021/07/20 07:56:27;;;;;;;9.50;8.30;;;;;;;;;;5059169;28;20040;-68
2021/07/20 07:58:55;;;;;;;10.30;8.60;;;;;;;;;;5053600;28;20532;-68
2021/07/20 08:01:21;;;;;;;10.75;8.90;;;;;;;;;;5061283;28;20037;-68
2021/07/20 08:03:48;;;;;;;11.77;9.00;;;;;;;;;;5057322;28;20040;-68
2021/07/20 08:06:21;;;;;;;12.60;9.75;;;;;;;;;;5064873;28;20041;-68
2021/07/20 08:08:47;;;;;;;11.32;9.07;;;;;;;;;;5050715;28;20136;-70
2021/07/20 08:11:14;;;;;;;10.38;8.75;;;;;;;;;;5068129;28;20456;-69
2021/07/20 08:13:42;;;;;;;13.30;10.32;;;;;;;;;;5053866;28;20046;-68
2021/07/20 08:16:08;;;;;;;12.23;9.10;;;;;;;;;;5064243;28;20087;-66
2021/07/20 08:18:35;;;;;;;11.77;9.48;;;;;;;;;;5051303;28;20055;-68
2021/07/20 08:21:11;;;;;;;10.40;9.05;;;;;;;;;;5067533;28;20037;-68
2021/07/20 08:23:37;;;;;;;11.05;8.43;;;;;;;;;;5060211;28;20044;-68
2021/07/20 08:26:32;;;;;;;11.48;8.10;;;;;;;;;;5054327;28;20043;-69
2021/07/20 08:28:59;;;;;;;9.98;8.48;;;;;;;;;;5035431;28;20049;-67
2021/07/20 08:31:27;;;;;;;8.82;7.72;;;;;;;;;;5059658;28;20056;-68
2021/07/20 08:33:55;;;;;;;9.45;7.70;;;;;;;;;;5058406;28;20622;-69
2021/07/20 08:36:21;;;;;;;7.28;6.53;;;;;;;;;;5057565;28;20040;-68
2021/07/20 08:38:48;;;;;;;6.55;5.95;;;;;;;;;;5055062;28;20037;-69
2021/07/20 08:41:20;;;;;;;6.97;6.28;;;;;;;;;;5039333;28;20060;-69
2021/07/20 08:43:58;;;;;;;7.22;6.53;;;;;;;;;;5059710;28;20053;-69
2021/07/20 08:46:44;;;;;;;7.57;6.70;;;;;;;;;;5051498;28;20404;-69
2021/07/20 08:49:10;;;;;;;7.88;6.55;;;;;;;;;;5060020;28;20479;-69
2021/07/20 08:51:45;;;;;;;7.70;6.82;;;;;;;;;;5053062;28;20059;-69
2021/07/20 08:54:17;;;;;;;7.45;6.78;;;;;;;;;;5044021;28;20048;-69
2021/07/20 08:56:45;;;;;;;8.95;6.63;;;;;;;;;;5053587;28;20075;-69
2021/07/20 08:59:19;;;;;;;9.90;7.47;;;;;;;;;;5058338;28;20116;-69
2021/07/20 09:02:18;;;;;;;7.95;7.10;;;;;;;;;;5056138;28;20524;-69
2021/07/20 09:04:48;;;;;;;7.38;6.43;;;;;;;;;;5004828;28;20092;-68
2021/07/20 09:07:16;;;;;;;10.00;6.85;;;;;;;;;;5055063;28;20472;-69
2021/07/20 09:09:46;;;;;;;8.95;7.45;;;;;;;;;;5057826;28;20743;-69
2021/07/20 09:12:34;;;;;;;7.45;6.68;;;;;;;;;;5058384;28;20094;-69
2021/07/20 09:15:07;;;;;;;7.53;6.70;;;;;;;;;;5059157;28;20040;-69
2021/07/20 09:17:53;;;;;;;7.97;6.72;;;;;;;;;;5051934;28;20036;-69
2021/07/20 09:20:24;;;;;;;7.32;6.57;;;;;;;;;;5062484;28;20443;-69
2021/07/20 09:22:53;;;;;;;7.93;7.13;;;;;;;;;;5055466;28;20465;-69
2021/07/20 09:25:25;;;;;;;8.10;7.30;;;;;;;;;;5060889;28;20123;-69
2021/07/20 09:27:57;;;;;;;7.35;6.45;;;;;;;;;;5051722;28;20045;-69
2021/07/20 09:30:30;;;;;;;8.02;6.78;;;;;;;;;;5059853;28;20045;-69
2021/07/20 09:33:18;;;;;;;7.40;6.70;;;;;;;;;;5048011;28;20500;-68
2021/07/20 09:35:46;;;;;;;7.90;6.15;;;;;;;;;;5056027;28;20519;-64
2021/07/20 09:38:18;;;;;;;7.32;6.50;;;;;;;;;;5049390;28;20049;-68
2021/07/20 09:40:49;;;;;;;6.82;5.97;;;;;;;;;;5058356;28;20052;-68
2021/07/20 09:43:26;;;;;;;7.10;6.35;;;;;;;;;;5051248;28;20425;-68
2021/07/20 09:45:59;;;;;;;6.78;5.75;;;;;;;;;;5055950;28;20454;-68
2021/07/20 09:48:26;;;;;;;6.53;5.60;;;;;;;;;;5057166;28;20040;-68
2021/07/20 09:51:15;;;;;;;7.43;6.63;;;;;;;;;;5061382;28;20557;-67
2021/07/20 09:53:41;;;;;;;7.53;5.63;;;;;;;;;;5011584;28;20400;-67
2021/07/20 09:56:18;;;;;;;7.20;6.03;;;;;;;;;;5063742;28;20105;-67
2021/07/20 09:58:44;;;;;;;7.93;6.63;;;;;;;;;;5056668;28;20265;-67
2021/07/20 10:01:15;;;;;;;7.63;6.45;;;;;;;;;;5057685;28;20048;-67
2021/07/20 10:03:50;;;;;;;9.50;6.30;;;;;;;;;;5048401;28;20474;-67
2021/07/20 10:06:28;;;;;;;7.90;6.20;;;;;;;;;;5054561;28;20053;-67
2021/07/20 10:08:59;;;;;;;6.55;5.78;;;;;;;;;;5053111;28;20041;-68
2021/07/20 10:11:33;;;;;;;6.78;5.60;;;;;;;;;;5058443;28;20545;-68
2021/07/20 10:14:19;;;;;;;7.68;5.88;;;;;;;;;;5051760;28;20036;-68
2021/07/20 10:17:04;;;;;;;6.75;5.72;;;;;;;;;;5059511;28;20092;-68
2021/07/20 10:19:37;;;;;;;6.88;5.88;;;;;;;;;;5055732;28;20048;-68
2021/07/20 10:22:05;;;;;;;6.30;5.70;;;;;;;;;;5056255;28;20234;-68
2021/07/20 10:24:34;;;;;;;7.32;6.03;;;;;;;;;;5052977;28;20041;-67
2021/07/20 10:27:04;;;;;;;7.30;6.03;;;;;;;;;;5053966;28;20050;-68
2021/07/20 10:29:46;;;;;;;7.07;6.10;;;;;;;;;;5047716;28;20037;-67
2021/07/20 10:32:15;;;;;;;7.85;5.90;;;;;;;;;;5057317;28;20052;-67
2021/07/20 10:34:45;;;;;;;7.32;5.65;;;;;;;;;;5051044;28;20044;-67
2021/07/20 10:37:14;;;;;;;6.28;5.68;;;;;;;;;;5062503;28;20083;-67
2021/07/20 10:39:49;;;;;;;7.68;6.75;;;;;;;;;;5049314;28;20449;-67
2021/07/20 10:42:36;;;;;;;6.88;6.18;;;;;;;;;;5060336;28;20037;-67
2021/07/20 10:45:07;;;;;;;6.85;6.15;;;;;;;;;;5051902;28;20048;-67
2021/07/20 10:47:43;;;;;;;8.18;6.47;;;;;;;;;;5059717;28;20106;-67
2021/07/20 10:50:24;;;;;;;8.20;6.10;;;;;;;;;;5053166;28;20531;-67
2021/07/20 10:53:09;;;;;;;10.55;9.45;;;;;;;;;;5056816;28;20481;-67
2021/07/20 10:55:38;;;;;;;7.78;6.07;;;;;;;;;;5055146;28;20032;-67
2021/07/20 10:58:04;;;;;;;6.53;5.88;;;;;;;;;;5057897;28;20060;-67
2021/07/20 11:00:40;;;;;;;7.60;5.68;;;;;;;;;;5051522;28;20052;-67
2021/07/20 11:03:11;;;;;;;5.78;5.15;;;;;;;;;;5063691;28;20522;-67
2021/07/20 11:05:39;;;;;;;6.57;5.15;;;;;;;;;;5050961;28;20432;-67
2021/07/20 11:08:07;;;;;;;8.80;5.82;;;;;;;;;;5060235;28;20119;-67
2021/07/20 11:10:36;;;;;;;6.95;5.30;;;;;;;;;;5055057;28;20408;-67
2021/07/20 11:13:05;;;;;;;6.25;5.28;;;;;;;;;;5068514;28;20562;-67
2021/07/20 11:15:32;;;;;;;6.95;5.13;;;;;;;;;;5059772;28;20060;-67
2021/07/20 11:18:01;;;;;;;6.65;5.13;;;;;;;;;;5070678;28;20322;-67
2021/07/20 11:20:27;;;;;;;5.78;5.28;;;;;;;;;;5065522;28;20053;-68
2021/07/20 11:22:54;;;;;;;7.65;6.47;;;;;;;;;;5060246;28;20041;-68
2021/07/20 11:25:21;;;;;;;7.07;5.30;;;;;;;;;;5067186;28;20040;-68
2021/07/20 11:27:48;;;;;;;8.15;5.82;;;;;;;;;;5057493;28;20036;-68
2021/07/20 11:30:16;;;;;;;6.18;5.57;;;;;;;;;;5061803;28;20045;-66
2021/07/20 11:32:47;;;;;;;6.28;5.50;;;;;;;;;;5058696;28;20043;-67
2021/07/20 11:35:16;;;;;;;6.07;5.28;;;;;;;;;;5062637;28;20041;-67
2021/07/20 11:37:53;;;;;;;8.65;5.20;;;;;;;;;;5061345;28;20041;-67
2021/07/20 11:40:34;;;;;;;6.03;4.45;;;;;;;;;;5062406;28;20048;-68
2021/07/20 11:43:03;;;;;;;6.28;5.22;;;;;;;;;;5055615;28;20043;-67
2021/07/20 11:45:34;;;;;;;5.13;4.65;;;;;;;;;;5049553;28;20068;-67
2021/07/20 11:48:06;;;;;;;6.78;4.88;;;;;;;;;;5062381;28;20060;-67
2021/07/20 11:50:41;;;;;;;5.30;4.70;;;;;;;;;;5069843;28;20048;-67
2021/07/20 11:53:17;;;;;;;5.38;4.50;;;;;;;;;;5062480;28;20033;-68
2021/07/20 11:55:56;;;;;;;5.82;5.10;;;;;;;;;;5065677;28;20063;-67
2021/07/20 11:58:22;;;;;;;7.63;5.80;;;;;;;;;;5058181;28;20113;-67
2021/07/20 12:00:56;;;;;;;6.43;5.68;;;;;;;;;;5060590;28;20045;-67
2021/07/20 12:03:35;;;;;;;6.32;5.55;;;;;;;;;;5057819;28;20053;-67
2021/07/20 12:06:01;;;;;;;6.45;4.82;;;;;;;;;;5060760;28;20045;-67
2021/07/20 12:08:42;;;;;;;7.63;5.22;;;;;;;;;;5056662;28;20141;-67
2021/07/20 12:11:15;;;;;;;6.75;5.43;;;;;;;;;;5058032;28;20044;-67
2021/07/20 12:13:43;;;;;;;6.22;5.63;;;;;;;;;;5057720;28;20033;-67
2021/07/20 12:16:11;;;;;;;6.10;5.38;;;;;;;;;;5064345;28;20056;-67
2021/07/20 12:18:46;;;;;;;7.07;5.70;;;;;;;;;;5059355;28;20500;-67
2021/07/20 12:21:13;;;;;;;6.05;5.25;;;;;;;;;;5061459;28;20504;-67
2021/07/20 12:23:40;;;;;;;5.68;5.07;;;;;;;;;;5053339;28;20034;-67
2021/07/20 12:26:07;;;;;;;6.07;4.90;;;;;;;;;;5056800;28;20055;-67
2021/07/20 12:28:33;;;;;;;6.47;5.63;;;;;;;;;;5053649;28;20045;-67
2021/07/20 12:30:59;;;;;;;6.47;5.47;;;;;;;;;;5056883;28;20087;-67
2021/07/20 12:33:26;;;;;;;6.32;5.32;;;;;;;;;;5054301;28;20041;-67
2021/07/20 12:35:52;;;;;;;8.57;5.55;;;;;;;;;;5063908;28;20029;-67
2021/07/20 12:38:23;;;;;;;6.28;4.95;;;;;;;;;;5058231;28;20041;-66
2021/07/20 12:40:49;;;;;;;6.15;5.55;;;;;;;;;;5052944;28;20459;-66
2021/07/20 12:43:16;;;;;;;6.00;5.40;;;;;;;;;;5060018;28;20099;-66
2021/07/20 12:45:44;;;;;;;5.95;5.40;;;;;;;;;;5052246;28;20045;-66
2021/07/20 12:48:27;;;;;;;5.82;5.22;;;;;;;;;;5057554;28;20444;-66
2021/07/20 12:50:55;;;;;;;6.47;5.20;;;;;;;;;;5052212;28;20075;-66
2021/07/20 12:53:21;;;;;;;6.72;5.97;;;;;;;;;;5061938;28;20128;-66
2021/07/20 12:55:47;;;;;;;8.20;5.70;;;;;;;;;;5052446;28;20132;-67
2021/07/20 12:58:16;;;;;;;6.60;5.40;;;;;;;;;;5058869;28;20458;-67
2021/07/20 13:00:43;;;;;;;5.97;5.32;;;;;;;;;;5059130;28;20119;-66
2021/07/20 13:03:10;;;;;;;7.72;5.43;;;;;;;;;;5062681;28;20070;-66
2021/07/20 13:05:40;;;;;;;13.55;12.15;;;;;;;;;;5052043;28;20032;-66
2021/07/20 13:08:07;;;;;;;6.93;5.60;;;;;;;;;;5055821;28;20493;-68
2021/07/20 13:10:33;;;;;;;7.50;5.50;;;;;;;;;;5053492;28;20127;-68
2021/07/20 13:13:00;;;;;;;7.13;5.55;;;;;;;;;;5062212;28;20074;-67
2021/07/20 13:15:26;;;;;;;7.05;6.35;;;;;;;;;;5059583;28;20028;-67
2021/07/20 13:17:53;;;;;;;5.88;5.28;;;;;;;;;;5059096;28;20052;-67
2021/07/20 13:20:20;;;;;;;5.93;4.82;;;;;;;;;;5053145;28;20037;-67
2021/07/20 13:22:46;;;;;;;5.30;4.72;;;;;;;;;;5057395;28;20036;-67
2021/07/20 13:25:13;;;;;;;7.25;4.90;;;;;;;;;;5059859;28;20051;-67
2021/07/20 13:27:40;;;;;;;5.85;4.90;;;;;;;;;;5057583;28;20040;-67
2021/07/20 13:30:11;;;;;;;8.60;5.32;;;;;;;;;;5059050;28;20397;-67
2021/07/20 13:32:38;;;;;;;5.30;4.80;;;;;;;;;;5049479;28;20053;-68
2021/07/20 13:35:06;;;;;;;6.03;5.03;;;;;;;;;;5057564;28;20106;-68
2021/07/20 13:37:33;;;;;;;5.70;5.10;;;;;;;;;;5056663;28;20040;-67
2021/07/20 13:40:00;;;;;;;6.85;5.22;;;;;;;;;;5058969;28;20068;-67
2021/07/20 13:42:27;;;;;;;6.18;4.88;;;;;;;;;;5050552;28;20489;-67
2021/07/20 13:44:53;;;;;;;7.05;4.57;;;;;;;;;;5064219;28;20556;-67
2021/07/20 13:47:20;;;;;;;5.70;5.10;;;;;;;;;;5055419;28;20048;-68
2021/07/20 13:49:47;;;;;;;7.13;5.10;;;;;;;;;;5064993;28;20048;-68
2021/07/20 13:52:14;;;;;;;6.43;5.15;;;;;;;;;;5058031;28;20040;-68
2021/07/20 13:54:44;;;;;;;6.72;5.03;;;;;;;;;;5061893;28;20056;-68
2021/07/20 13:57:10;;;;;;;6.50;4.80;;;;;;;;;;5057602;28;20058;-68
2021/07/20 13:59:40;;;;;;;6.88;5.78;;;;;;;;;;5062942;28;20052;-68
2021/07/20 14:02:06;;;;;;;6.40;4.93;;;;;;;;;;5056865;28;20032;-68
2021/07/20 14:04:33;;;;;;;6.13;5.18;;;;;;;;;;5057909;28;20037;-68
2021/07/20 14:07:00;;;;;;;6.00;5.22;;;;;;;;;;5032751;28;20544;-68
2021/07/20 14:09:28;;;;;;;6.60;5.45;;;;;;;;;;5057616;28;20064;-68
2021/07/20 14:11:54;;;;;;;5.28;4.75;;;;;;;;;;5055987;28;20095;-68
2021/07/20 14:14:22;;;;;;;7.45;5.00;;;;;;;;;;5051569;28;20141;-68
2021/07/20 14:16:49;;;;;;;7.60;5.30;;;;;;;;;;5057974;28;20041;-68
2021/07/20 14:19:16;;;;;;;6.38;5.07;;;;;;;;;;5048296;28;20554;-67
2021/07/20 14:21:46;;;;;;;6.53;5.30;;;;;;;;;;5062251;28;20040;-67
2021/07/20 14:24:14;;;;;;;6.32;5.38;;;;;;;;;;5054289;28;20052;-67
2021/07/20 14:26:46;;;;;;;6.18;5.05;;;;;;;;;;5060019;28;20224;-67
2021/07/20 14:29:13;;;;;;;5.70;5.05;;;;;;;;;;5058789;28;20041;-67
2021/07/20 14:31:40;;;;;;;6.55;5.20;;;;;;;;;;5059314;28;20060;-67
2021/07/20 14:34:11;;;;;;;7.00;4.93;;;;;;;;;;5049845;28;20478;-67
2021/07/20 14:36:40;;;;;;;6.18;5.13;;;;;;;;;;5056115;28;20064;-67
2021/07/20 14:39:17;;;;;;;5.60;4.60;;;;;;;;;;5051364;28;20049;-67
2021/07/20 14:41:44;;;;;;;5.80;4.60;;;;;;;;;;5058053;28;20033;-67
2021/07/20 14:44:10;;;;;;;6.25;4.78;;;;;;;;;;5048754;28;20064;-68
2021/07/20 14:46:44;;;;;;;7.97;5.13;;;;;;;;;;5061591;28;20044;-68